createdAt,value
2022-08-26T00:02:21.639Z,98040.86
2022-08-26T00:15:43.762Z,98042.54
2022-08-26T00:18:56.283Z,98045.00
2022-08-26T00:22:04.507Z,98046.52
2022-08-26T00:24:48.017Z,98043.34
2022-08-26T00:27:57.913Z,98042.52
2022-08-26T00:30:34.584Z,98043.86
2022-08-26T00:36:35.823Z,98036.96
2022-08-26T00:39:16.499Z,98035.06
2022-08-26T00:42:13.629Z,98032.21
2022-08-26T00:45:19.626Z,98032.83
2022-08-26T00:48:43.005Z,98028.55
2022-08-26T00:51:36.860Z,98026.02
2022-08-26T00:58:09.251Z,98025.63
2022-08-26T01:01:32.461Z,98028.16
2022-08-26T01:04:55.993Z,98026.53
2022-08-26T01:08:17.433Z,98027.28
2022-08-26T01:11:43.852Z,98029.19
2022-08-26T01:14:38.455Z,98025.31
2022-08-26T01:17:31.299Z,98025.04
2022-08-26T01:20:33.042Z,98023.80
2022-08-26T01:26:32.781Z,98012.90
2022-08-26T01:30:20.935Z,98015.95
2022-08-26T01:33:08.178Z,98010.30
2022-08-26T01:36:23.177Z,98011.52
2022-08-26T01:38:55.612Z,98015.36
2022-08-26T01:48:35.619Z,98021.34
2022-08-26T01:51:47.642Z,98020.29
2022-08-26T01:54:32.521Z,98026.34
2022-08-26T01:57:17.862Z,98028.11
2022-08-26T02:00:03.338Z,98029.38
2022-08-26T02:02:52.619Z,98028.71
2022-08-26T02:05:41.394Z,98029.71
2022-08-26T02:08:22.706Z,98031.48
2022-08-26T02:11:00.547Z,98031.20
2022-08-26T02:13:39.619Z,98037.85
2022-08-26T02:16:13.743Z,98034.91
2022-08-26T02:18:47.334Z,98040.50
2022-08-26T02:21:19.911Z,98040.36
2022-08-26T02:23:56.106Z,98037.34
2022-08-26T02:26:55.069Z,98039.60
2022-08-26T02:29:33.867Z,98043.35
2022-08-26T02:32:07.879Z,98042.91
2022-08-26T02:34:42.837Z,98045.10
2022-08-26T02:37:15.925Z,98044.13
2022-08-26T02:40:02.335Z,98046.41
2022-08-26T02:42:39.501Z,98044.53
2022-08-26T02:45:23.052Z,98040.42
2022-08-26T02:48:04.056Z,98039.91
2022-08-26T02:50:49.193Z,98040.09
2022-08-26T02:53:25.435Z,98039.51
2022-08-26T02:55:57.830Z,98039.77
2022-08-26T02:58:39.143Z,98041.15
2022-08-26T03:01:11.242Z,98039.13
2022-08-26T03:03:44.450Z,98036.45
2022-08-26T03:06:20.900Z,98031.95
2022-08-26T03:09:02.425Z,98031.84
2022-08-26T03:11:34.490Z,98028.62
2022-08-26T03:14:10.549Z,98022.38
2022-08-26T03:16:57.872Z,98020.17
2022-08-26T03:19:41.234Z,98021.09
2022-08-26T03:22:22.175Z,98017.77
2022-08-26T03:24:55.325Z,98026.02
2022-08-26T03:27:25.576Z,98025.48
2022-08-26T03:30:14.566Z,98023.80
2022-08-26T03:32:47.399Z,98017.92
2022-08-26T03:35:23.278Z,98020.28
2022-08-26T03:37:57.687Z,98021.44
2022-08-26T03:40:33.696Z,98017.93
2022-08-26T03:43:19.211Z,98017.05
2022-08-26T03:45:54.183Z,98016.05
2022-08-26T03:48:28.204Z,98015.52
2022-08-26T03:51:06.094Z,98012.17
2022-08-26T03:53:42.631Z,98010.07
2022-08-26T03:56:17.801Z,98014.92
2022-08-26T03:58:50.930Z,98012.24
2022-08-26T04:01:37.934Z,98011.52
2022-08-26T04:04:15.517Z,98013.84
2022-08-26T04:06:53.478Z,98011.05
2022-08-26T04:09:31.746Z,98008.42
2022-08-26T04:12:34.193Z,98007.75
2022-08-26T04:15:12.019Z,98011.73
2022-08-26T04:17:46.620Z,98013.27
2022-08-26T04:20:21.759Z,98011.20
2022-08-26T04:22:54.290Z,98010.61
2022-08-26T04:25:28.146Z,98009.12
2022-08-26T04:28:08.483Z,98011.98
2022-08-26T04:33:57.281Z,98013.56
2022-08-26T04:36:28.763Z,98013.15
2022-08-26T04:39:02.021Z,98014.58
2022-08-26T04:41:36.947Z,98013.78
2022-08-26T04:44:14.855Z,98013.27
2022-08-26T04:46:47.122Z,98015.16
2022-08-26T04:52:26.893Z,98017.09
2022-08-26T04:55:01.106Z,98016.70
2022-08-26T04:57:33.848Z,98016.89
2022-08-26T05:00:15.581Z,98017.34
2022-08-26T05:02:52.802Z,98016.48
2022-08-26T05:05:24.827Z,98018.48
2022-08-26T05:08:06.625Z,98019.73
2022-08-26T05:10:46.063Z,98020.13
2022-08-26T05:13:41.808Z,98023.17
2022-08-26T05:16:17.490Z,98022.06
2022-08-26T05:18:54.219Z,98023.05
2022-08-26T05:21:29.248Z,98022.64
2022-08-26T05:26:05.062Z,98021.80
2022-08-26T05:28:44.715Z,98025.23
2022-08-26T05:31:28.498Z,98026.38
2022-08-26T05:34:03.658Z,98026.44
2022-08-26T05:36:36.974Z,98031.14
2022-08-26T05:39:13.495Z,98032.98
2022-08-26T05:41:50.669Z,98034.25
2022-08-26T05:44:23.568Z,98036.33
2022-08-26T05:46:55.533Z,98035.95
2022-08-26T05:49:27.184Z,98036.58
2022-08-26T05:51:59.565Z,98037.99
2022-08-26T05:57:23.279Z,98035.32
2022-08-26T05:59:58.576Z,98026.83
2022-08-26T06:02:38.669Z,98036.65
2022-08-26T06:05:10.923Z,98035.71
2022-08-26T06:08:00.073Z,98037.77
2022-08-26T06:10:35.169Z,98040.46
2022-08-26T06:13:12.087Z,98036.48
2022-08-26T06:15:45.863Z,98037.19
2022-08-26T06:18:19.341Z,98039.65
2022-08-26T06:20:58.042Z,98040.02
2022-08-26T06:23:59.470Z,98042.48
2022-08-26T06:26:30.638Z,98048.27
2022-08-26T06:29:05.299Z,98049.27
2022-08-26T06:31:37.464Z,98053.21
2022-08-26T06:34:11.294Z,98052.81
2022-08-26T06:36:45.051Z,98057.05
2022-08-26T06:39:21.571Z,98060.57
2022-08-26T06:41:56.419Z,98060.47
2022-08-26T06:44:29.291Z,98063.96
2022-08-26T06:47:00.637Z,98064.19
2022-08-26T06:49:32.210Z,98060.56
2022-08-26T06:52:04.157Z,98056.72
2022-08-26T06:54:33.547Z,98059.94
2022-08-26T06:57:05.532Z,98054.48
2022-08-26T06:59:38.919Z,98059.55
2022-08-26T07:02:13.768Z,98059.27
2022-08-26T07:04:45.361Z,98063.61
2022-08-26T07:07:19.428Z,98064.65
2022-08-26T07:09:54.871Z,98061.14
2022-08-26T07:12:28.986Z,98061.65
2022-08-26T07:15:11.693Z,98061.31
2022-08-26T07:17:46.885Z,98059.91
2022-08-26T07:20:19.416Z,98058.11
2022-08-26T07:22:51.378Z,98060.13
2022-08-26T07:25:22.674Z,98055.58
2022-08-26T07:27:54.640Z,98058.36
2022-08-26T07:30:24.290Z,98056.05
2022-08-26T07:32:59.229Z,98051.77
2022-08-26T07:35:30.485Z,98055.04
2022-08-26T07:38:01.809Z,98056.33
2022-08-26T07:40:32.096Z,98059.66
2022-08-26T07:43:04.469Z,98060.49
2022-08-26T07:45:35.822Z,98065.77
2022-08-26T07:48:07.701Z,98068.64
2022-08-26T07:50:50.250Z,98065.53
2022-08-26T07:53:21.763Z,98064.02
2022-08-26T07:55:55.292Z,98062.60
2022-08-26T07:58:25.297Z,98060.93
2022-08-26T08:00:56.908Z,98062.18
2022-08-26T08:03:29.823Z,98059.54
2022-08-26T08:06:01.708Z,98059.96
2022-08-26T08:08:32.937Z,98055.59
2022-08-26T08:11:04.408Z,98056.02
2022-08-26T08:13:37.670Z,98059.04
2022-08-26T08:16:12.561Z,98055.83
2022-08-26T08:18:43.957Z,98056.38
2022-08-26T08:21:21.290Z,98060.46
2022-08-26T08:24:00.257Z,98056.37
2022-08-26T08:33:48.182Z,98063.41
2022-08-26T08:36:24.905Z,98065.99
2022-08-26T08:43:37.642Z,98060.49
2022-08-26T08:46:13.051Z,98066.64
2022-08-26T08:48:48.284Z,98065.38
2022-08-26T08:51:28.439Z,98067.58
2022-08-26T08:54:02.320Z,98066.21
2022-08-26T08:56:42.972Z,98060.86
2022-08-26T08:59:19.965Z,98063.61
2022-08-26T09:02:02.952Z,98068.40
2022-08-26T09:04:56.185Z,98070.02
2022-08-26T09:07:40.036Z,98071.98
2022-08-26T09:10:32.269Z,98070.74
2022-08-26T09:13:16.909Z,98074.19
2022-08-26T09:16:06.865Z,98071.83
2022-08-26T09:18:40.464Z,98074.11
2022-08-26T09:21:14.290Z,98069.67
2022-08-26T09:23:49.526Z,98068.70
2022-08-26T09:26:25.940Z,98070.67
2022-08-26T09:29:03.601Z,98069.52
2022-08-26T09:31:39.330Z,98062.36
2022-08-26T09:34:19.016Z,98062.37
2022-08-26T09:36:51.795Z,98066.23
2022-08-26T09:39:32.207Z,98067.65
2022-08-26T09:42:09.532Z,98067.11
2022-08-26T09:47:43.149Z,98064.29
2022-08-26T09:50:29.055Z,98059.65
2022-08-26T09:53:17.149Z,98058.83
2022-08-26T09:55:55.489Z,98053.40
2022-08-26T09:58:37.962Z,98052.59
2022-08-26T10:01:11.202Z,98052.42
2022-08-26T10:03:42.274Z,98043.90
2022-08-26T10:06:26.996Z,98040.21
2022-08-26T10:09:01.373Z,98037.84
2022-08-26T10:11:42.764Z,98033.88
2022-08-26T10:14:19.080Z,98034.23
2022-08-26T10:16:53.728Z,98029.20
2022-08-26T10:19:29.158Z,98027.13
2022-08-26T10:22:22.269Z,98024.64
2022-08-26T10:24:55.782Z,98025.66
2022-08-26T10:27:34.017Z,98027.09
2022-08-26T10:30:10.587Z,98020.09
2022-08-26T10:32:44.370Z,98015.18
2022-08-26T10:35:19.224Z,98015.73
2022-08-26T10:37:53.767Z,98013.21
2022-08-26T10:40:27.296Z,98013.40
2022-08-26T10:43:07.058Z,98008.79
2022-08-26T10:45:44.294Z,98005.60
2022-08-26T10:48:17.983Z,98002.23
2022-08-26T10:50:49.618Z,98002.70
2022-08-26T10:53:28.402Z,98002.06
2022-08-26T10:56:18.016Z,98001.05
2022-08-26T10:59:01.265Z,98006.58
2022-08-26T11:07:43.995Z,98009.64
2022-08-26T11:10:50.347Z,98006.49
2022-08-26T11:13:21.199Z,98003.42
2022-08-26T11:16:09.693Z,97999.64
2022-08-26T11:18:54.774Z,97993.05
2022-08-26T11:21:52.118Z,97996.83
2022-08-26T11:24:47.561Z,98002.30
2022-08-26T11:28:05.236Z,98000.92
2022-08-26T11:30:56.953Z,98001.91
2022-08-26T11:34:00.266Z,98001.15
2022-08-26T11:37:00.811Z,97993.20
2022-08-26T11:39:36.676Z,97990.98
2022-08-26T11:42:24.456Z,97991.05
2022-08-26T11:45:04.692Z,97986.81
2022-08-26T11:47:36.868Z,97980.73
2022-08-26T11:50:18.904Z,97975.70
2022-08-26T11:53:02.516Z,97970.34
2022-08-26T11:55:35.181Z,97970.94
2022-08-26T11:58:08.650Z,97968.50
2022-08-26T12:00:45.593Z,97962.38
2022-08-26T12:03:23.014Z,97959.58
2022-08-26T12:05:55.258Z,97957.96
2022-08-26T12:08:31.158Z,97958.89
2022-08-26T12:11:11.136Z,97954.67
2022-08-26T12:13:43.249Z,97948.40
2022-08-26T12:16:26.697Z,97944.35
2022-08-26T12:18:58.563Z,97943.37
2022-08-26T12:21:34.836Z,97945.11
2022-08-26T12:24:08.289Z,97941.30
2022-08-26T12:26:40.443Z,97937.58
2022-08-26T12:29:20.136Z,97941.90
2022-08-26T12:32:13.513Z,97938.86
2022-08-26T12:34:51.993Z,97935.64
2022-08-26T12:37:27.307Z,97935.95
2022-08-26T12:40:31.922Z,97931.34
2022-08-26T12:43:05.260Z,97926.20
2022-08-26T12:45:38.837Z,97922.76
2022-08-26T12:48:13.590Z,97917.31
2022-08-26T12:50:52.174Z,97910.86
2022-08-26T12:53:26.538Z,97904.13
2022-08-26T12:56:00.335Z,97905.34
2022-08-26T12:58:33.702Z,97902.31
2022-08-26T13:01:26.750Z,97902.45
2022-08-26T13:03:59.601Z,97901.71
2022-08-26T13:06:32.713Z,97903.98
2022-08-26T13:09:06.515Z,97905.64
2022-08-26T13:12:02.137Z,97901.22
2022-08-26T13:14:35.789Z,97895.77
2022-08-26T13:17:06.752Z,97884.61
2022-08-26T13:19:37.835Z,97881.84
2022-08-26T13:22:09.012Z,97873.08
2022-08-26T13:24:41.950Z,97874.52
2022-08-26T13:27:14.480Z,97875.88
2022-08-26T13:29:45.983Z,97871.98
2022-08-26T13:32:22.596Z,97871.61
2022-08-26T13:34:59.725Z,97868.08
2022-08-26T13:37:35.088Z,97865.65
2022-08-26T13:40:08.422Z,97861.67
2022-08-26T13:49:49.216Z,97847.52
2022-08-26T13:52:29.177Z,97848.44
2022-08-26T13:55:07.122Z,97846.51
2022-08-26T13:57:42.410Z,97851.21
2022-08-26T14:00:18.255Z,97855.11
2022-08-26T14:02:51.639Z,97864.70
2022-08-26T14:05:23.715Z,97868.17
2022-08-26T14:07:57.537Z,97875.55
2022-08-26T14:10:31.133Z,97868.73
2022-08-26T14:13:05.572Z,97872.76
2022-08-26T14:15:40.191Z,97872.81
2022-08-26T14:18:14.103Z,97871.22
2022-08-26T14:20:51.186Z,97866.42
2022-08-26T14:23:23.270Z,97869.74
2022-08-26T14:25:54.373Z,97882.23
2022-08-26T14:31:01.492Z,97896.80
2022-08-26T14:33:35.681Z,97894.22
2022-08-26T14:36:25.070Z,97887.73
2022-08-26T14:38:56.507Z,97880.13
2022-08-26T14:41:28.224Z,97875.42
2022-08-26T14:44:00.472Z,97870.75
2022-08-26T14:46:33.407Z,97866.25
2022-08-26T14:49:07.299Z,97857.28
2022-08-26T14:51:41.223Z,97863.48
2022-08-26T14:54:13.641Z,97863.24
2022-08-26T14:56:47.443Z,97864.64
2022-08-26T14:59:22.163Z,97865.15
2022-08-26T15:01:53.365Z,97865.00
2022-08-26T15:04:24.461Z,97865.79
2022-08-26T15:06:57.551Z,97866.06
2022-08-26T15:09:31.877Z,97860.08
2022-08-26T15:12:03.831Z,97868.98
2022-08-26T15:14:33.406Z,97864.91
2022-08-26T15:17:06.004Z,97868.68
2022-08-26T15:19:37.365Z,97864.83
2022-08-26T15:22:08.826Z,97866.88
2022-08-26T15:24:42.621Z,97861.84
2022-08-26T15:27:14.286Z,97868.30
2022-08-26T15:29:45.299Z,97871.04
2022-08-26T15:32:16.919Z,97878.18
2022-08-26T15:34:49.860Z,97882.70
2022-08-26T15:37:20.571Z,97878.96
2022-08-26T15:39:55.153Z,97879.86
2022-08-26T15:42:26.817Z,97882.29
2022-08-26T15:44:58.017Z,97887.69
2022-08-26T15:47:29.133Z,97892.04
2022-08-26T15:50:01.014Z,97891.50
2022-08-26T15:52:32.828Z,97893.04
2022-08-26T15:57:40.085Z,97886.23
2022-08-26T16:00:15.736Z,97880.44
2022-08-26T16:02:46.881Z,97871.69
2022-08-26T16:05:18.815Z,97865.71
2022-08-26T16:07:56.104Z,97862.27
2022-08-26T16:10:31.471Z,97857.55
2022-08-26T16:13:03.074Z,97861.73
2022-08-26T16:15:35.319Z,97856.84
2022-08-26T16:18:09.505Z,97859.86
2022-08-26T16:20:56.038Z,97859.61
2022-08-26T16:23:44.299Z,97870.57
2022-08-26T16:26:19.714Z,97870.02
2022-08-26T16:28:54.841Z,97880.09
2022-08-26T16:31:30.371Z,97884.39
2022-08-26T16:34:03.047Z,97890.80
2022-08-26T16:36:35.373Z,97894.05
2022-08-26T16:39:08.170Z,97896.21
2022-08-26T16:41:40.390Z,97898.55
2022-08-26T16:44:12.748Z,97898.11
2022-08-26T16:46:45.662Z,97902.33
2022-08-26T16:49:18.428Z,97904.78
2022-08-26T16:51:50.501Z,97908.42
2022-08-26T16:54:22.567Z,97909.15
2022-08-26T16:56:53.956Z,97912.99
2022-08-26T16:59:28.327Z,97908.04
2022-08-26T17:01:59.580Z,97901.67
2022-08-26T17:04:32.011Z,97900.33
2022-08-26T17:07:01.352Z,97902.31
2022-08-26T17:09:33.078Z,97912.91
2022-08-26T17:12:04.392Z,97914.09
2022-08-26T17:14:36.527Z,97907.78
2022-08-26T17:17:13.204Z,97906.98
2022-08-26T17:19:47.205Z,97900.36
2022-08-26T17:22:19.271Z,97906.94
2022-08-26T17:24:50.210Z,97907.95
2022-08-26T17:27:21.251Z,97910.20
2022-08-26T17:29:53.634Z,97908.91
2022-08-26T17:32:24.769Z,97913.69
2022-08-26T17:34:55.973Z,97916.70
2022-08-26T17:37:27.170Z,97908.05
2022-08-26T17:39:58.964Z,97913.51
2022-08-26T17:42:31.846Z,97908.69
2022-08-26T17:45:03.747Z,97909.28
2022-08-26T17:47:36.133Z,97910.89
2022-08-26T17:50:10.375Z,97908.83
2022-08-26T17:52:46.045Z,97904.23
2022-08-26T17:55:18.875Z,97904.00
2022-08-26T17:57:53.413Z,97905.05
2022-08-26T18:00:27.534Z,97910.13
2022-08-26T18:02:59.159Z,97909.40
2022-08-26T18:05:31.052Z,97918.58
2022-08-26T18:08:02.526Z,97918.38
2022-08-26T18:10:34.131Z,97923.48
2022-08-26T18:13:06.185Z,97924.73
2022-08-26T18:15:39.527Z,97929.42
2022-08-26T18:18:10.542Z,97933.64
2022-08-26T18:20:45.782Z,97947.19
2022-08-26T18:23:22.960Z,97951.68
2022-08-26T18:25:58.253Z,97953.44
2022-08-26T18:28:30.084Z,97955.96
2022-08-26T18:31:03.551Z,97950.83
2022-08-26T18:33:35.419Z,97955.27
2022-08-26T18:36:07.334Z,97954.05
2022-08-26T18:38:38.623Z,97951.39
2022-08-26T18:41:14.184Z,97947.36
2022-08-26T18:43:45.453Z,97946.00
2022-08-26T18:46:16.665Z,97945.18
2022-08-26T18:48:50.991Z,97947.75
2022-08-26T18:51:28.242Z,97955.16
2022-08-26T18:54:00.193Z,97960.48
2022-08-26T18:56:31.816Z,97967.79
2022-08-26T18:59:03.567Z,97973.16
2022-08-26T19:01:39.134Z,97973.48
2022-08-26T19:04:14.101Z,97976.98
2022-08-26T19:06:48.882Z,97981.89
2022-08-26T19:09:21.226Z,97984.02
2022-08-26T19:11:50.877Z,97981.52
2022-08-26T19:14:23.903Z,97990.71
2022-08-26T19:16:56.052Z,97998.09
2022-08-26T19:19:27.969Z,98001.72
2022-08-26T19:21:59.225Z,98007.80
2022-08-26T19:24:35.293Z,98015.73
2022-08-26T19:27:14.942Z,98018.88
2022-08-26T19:29:46.920Z,98024.34
2022-08-26T19:32:18.195Z,98027.19
2022-08-26T19:34:51.214Z,98033.79
2022-08-26T19:37:23.279Z,98036.89
2022-08-26T19:39:54.671Z,98044.24
2022-08-26T19:42:26.045Z,98043.88
2022-08-26T19:45:20.213Z,98047.00
2022-08-26T19:47:56.631Z,98056.89
2022-08-26T19:50:29.621Z,98057.90
2022-08-26T19:53:02.078Z,98059.16
2022-08-26T19:55:33.939Z,98061.81
2022-08-26T19:58:05.190Z,98063.25
2022-08-26T20:00:39.817Z,98058.37
2022-08-26T20:03:15.945Z,98059.30
2022-08-26T20:05:47.528Z,98062.65
2022-08-26T20:08:22.602Z,98060.02
2022-08-26T20:10:54.324Z,98060.28
2022-08-26T20:13:28.457Z,98057.13
2022-08-26T20:15:59.860Z,98057.96
2022-08-26T20:18:51.440Z,98054.39
2022-08-26T20:21:29.623Z,98052.14
2022-08-26T20:24:04.240Z,98048.73
2022-08-26T20:26:37.624Z,98048.05
2022-08-26T20:29:16.117Z,98048.83
2022-08-26T20:32:06.416Z,98047.27
2022-08-26T20:34:38.374Z,98047.39
2022-08-26T20:37:10.157Z,98046.59
2022-08-26T20:39:42.265Z,98051.74
2022-08-26T20:42:20.006Z,98051.15
2022-08-26T20:44:54.696Z,98049.09
2022-08-26T20:47:26.399Z,98052.13
2022-08-26T20:50:00.635Z,98053.80
2022-08-26T20:52:31.604Z,98052.88
2022-08-26T20:55:02.236Z,98053.66
2022-08-26T20:57:33.636Z,98051.08
2022-08-26T21:00:05.655Z,98056.59
2022-08-26T21:02:37.152Z,98056.16
2022-08-26T21:05:11.157Z,98061.84
2022-08-26T21:07:42.051Z,98064.29
2022-08-26T21:10:15.038Z,98069.11
2022-08-26T21:12:46.546Z,98070.14
2022-08-26T21:15:17.592Z,98074.02
2022-08-26T21:17:49.127Z,98072.72
2022-08-26T21:20:20.765Z,98068.65
2022-08-26T21:22:52.325Z,98064.30
2022-08-26T21:25:23.681Z,98066.13
2022-08-26T21:27:55.643Z,98063.98
2022-08-26T21:30:27.024Z,98066.72
2022-08-26T21:33:00.797Z,98066.17
2022-08-26T21:35:35.121Z,98068.34
2022-08-26T21:38:06.487Z,98068.65
2022-08-26T21:40:37.771Z,98072.27
2022-08-26T21:43:08.702Z,98072.17
2022-08-26T21:45:45.530Z,98069.93
2022-08-26T21:48:17.138Z,98065.45
2022-08-26T21:50:49.314Z,98065.91
2022-08-26T21:53:20.845Z,98075.41
2022-08-26T21:55:53.094Z,98075.29
2022-08-26T21:58:25.398Z,98075.10
2022-08-26T22:00:56.731Z,98080.31
2022-08-26T22:03:28.598Z,98080.64
2022-08-26T22:06:03.554Z,98081.29
2022-08-26T22:08:38.466Z,98087.19
2022-08-26T22:11:15.486Z,98085.23
2022-08-26T22:13:49.988Z,98084.14
2022-08-26T22:16:22.877Z,98086.57
2022-08-26T22:18:58.907Z,98090.90
2022-08-26T22:21:33.250Z,98090.15
2022-08-26T22:24:07.339Z,98092.17
2022-08-26T22:26:40.251Z,98095.70
2022-08-26T22:29:16.079Z,98099.12
2022-08-26T22:31:53.900Z,98097.60
2022-08-26T22:34:26.891Z,98093.77
2022-08-26T22:36:59.645Z,98093.20
2022-08-26T22:39:37.383Z,98094.64
2022-08-26T22:42:13.287Z,98090.12
2022-08-26T22:44:47.750Z,98094.51
2022-08-26T22:47:19.567Z,98098.13
2022-08-26T22:49:52.592Z,98100.79
2022-08-26T22:52:28.964Z,98099.12
2022-08-26T22:55:13.543Z,98092.76
2022-08-26T23:00:36.582Z,98093.08
2022-08-26T23:03:09.901Z,98095.84
2022-08-26T23:05:50.605Z,98097.65
2022-08-26T23:08:29.244Z,98098.07
2022-08-26T23:11:02.276Z,98092.64
2022-08-26T23:13:36.336Z,98096.05
2022-08-26T23:16:12.487Z,98096.83
2022-08-26T23:18:45.898Z,98096.90
2022-08-26T23:21:22.492Z,98096.11
2022-08-26T23:23:57.500Z,98098.30
2022-08-26T23:26:31.456Z,98100.56
2022-08-26T23:29:05.471Z,98098.48
2022-08-26T23:31:40.301Z,98100.88
2022-08-26T23:34:30.319Z,98095.40
2022-08-26T23:37:06.663Z,98094.73
2022-08-26T23:39:44.612Z,98093.95
2022-08-26T23:42:27.857Z,98097.53
2022-08-26T23:47:55.546Z,98098.45
2022-08-26T23:50:44.929Z,98100.40
2022-08-26T23:53:21.001Z,98097.98
2022-08-26T23:55:55.627Z,98095.35
2022-08-26T23:58:29.932Z,98100.52
